Time;durP1;ratioP1;P1;durP2;ratioP2;P2;SDS_P1;SDS_P2;PMS_P1;PMS_P2;Temp;Humidity;BMP_temperature;BMP_pressure;BME280_temperature;BME280_humidity;BME280_pressure;Samples;Min_cycle;Max_cycle;Signal;HPM_P1;HPM_P2
2021/04/15 00:00:29;;;;;;;1.90;1.80;;;4.00;1.00;;;;;;5097742;28;20228;-79
2021/04/15 00:02:59;;;;;;;3.45;2.40;;;4.00;1.00;;;;;;5087963;28;20244;-80
2021/04/15 00:05:29;;;;;;;2.60;2.10;;;4.00;1.00;;;;;;5090640;28;20232;-79
2021/04/15 00:07:56;;;;;;;2.05;1.75;;;3.90;1.00;;;;;;5094384;28;20220;-83
2021/04/15 00:10:26;;;;;;;3.33;1.70;;;3.90;1.00;;;;;;5089085;28;20220;-80
2021/04/15 00:12:52;;;;;;;2.50;1.75;;;3.90;1.00;;;;;;5095139;28;20208;-83
2021/04/15 00:15:19;;;;;;;2.05;1.50;;;3.90;1.00;;;;;;5087575;28;20215;-83
2021/04/15 00:17:46;;;;;;;5.30;1.55;;;3.90;1.00;;;;;;5110849;28;20211;-84
2021/04/15 00:20:14;;;;;;;3.83;1.90;;;3.90;1.00;;;;;;5092508;28;20216;-83
2021/04/15 00:22:41;;;;;;;2.72;2.53;;;3.90;1.00;;;;;;5085713;28;20240;-82
2021/04/15 00:25:10;;;;;;;3.67;1.75;;;3.80;1.00;;;;;;5086573;28;20219;-81
2021/04/15 00:27:36;;;;;;;2.60;2.10;;;3.80;1.00;;;;;;5089899;28;20228;-81
2021/04/15 00:30:05;;;;;;;4.75;1.88;;;3.80;1.00;;;;;;5091580;28;20216;-81
2021/04/15 00:32:31;;;;;;;3.20;1.90;;;3.80;1.00;;;;;;5079442;28;20289;-81
2021/04/15 00:34:58;;;;;;;2.50;2.28;;;3.80;1.00;;;;;;5107055;27;20243;-85
2021/04/15 00:37:25;;;;;;;4.88;2.50;;;3.70;1.00;;;;;;5095468;28;20232;-84
2021/04/15 00:39:52;;;;;;;2.08;1.88;;;3.70;1.00;;;;;;5094623;28;20228;-84
2021/04/15 00:42:18;;;;;;;3.45;2.00;;;3.80;1.00;;;;;;5090954;28;20266;-84
2021/04/15 00:44:45;;;;;;;1.92;1.70;;;3.80;1.00;;;;;;5089397;28;20236;-84
2021/04/15 00:47:17;;;;;;;4.00;1.75;;;3.70;1.00;;;;;;5091918;28;20250;-82
2021/04/15 00:49:51;;;;;;;1.60;1.50;;;3.70;1.00;;;;;;5089593;28;20225;-84
2021/04/15 00:52:20;;;;;;;2.28;1.58;;;3.70;1.00;;;;;;5098859;28;20287;-81
2021/04/15 00:54:49;;;;;;;2.60;1.77;;;3.70;1.00;;;;;;5103691;28;20779;-81
2021/04/15 00:57:19;;;;;;;1.98;1.88;;;3.70;1.00;;;;;;5091932;28;20296;-81
2021/04/15 00:59:46;;;;;;;2.05;1.85;;;3.60;1.00;;;;;;5093087;28;20516;-83
2021/04/15 01:02:16;;;;;;;2.58;2.03;;;3.70;1.00;;;;;;5106609;27;20227;-81
2021/04/15 01:04:43;;;;;;;4.50;2.47;;;3.70;1.00;;;;;;5088092;28;20224;-79
2021/04/15 01:07:10;;;;;;;6.05;2.40;;;3.60;1.00;;;;;;5079184;28;20224;-80
2021/04/15 01:09:37;;;;;;;4.13;2.53;;;3.60;1.00;;;;;;5071584;28;20274;-82
2021/04/15 01:12:19;;;;;;;3.55;2.38;;;3.60;1.00;;;;;;5080682;28;20299;-80
2021/04/15 01:14:57;;;;;;;4.07;2.70;;;3.60;1.00;;;;;;5086703;28;20314;-83
2021/04/15 01:17:29;;;;;;;3.45;2.60;;;3.60;1.00;;;;;;5089370;28;20228;-80
2021/04/15 01:20:46;;;;;;;2.40;2.17;;;3.60;1.00;;;;;;5089301;28;20228;-80
2021/04/15 01:23:21;;;;;;;4.30;2.85;;;3.50;1.00;;;;;;5076031;28;20231;-82
2021/04/15 01:26:15;;;;;;;3.63;2.88;;;3.50;1.00;;;;;;5085468;28;20223;-84
2021/04/15 01:28:58;;;;;;;3.22;2.90;;;3.50;1.00;;;;;;5089650;28;20216;-80
2021/04/15 01:31:40;;;;;;;4.18;3.15;;;3.50;1.00;;;;;;5087717;28;21171;-79
2021/04/15 01:34:12;;;;;;;3.60;2.92;;;3.50;1.00;;;;;;5090041;28;20248;-81
2021/04/15 01:36:46;;;;;;;3.97;2.80;;;3.50;1.00;;;;;;5085423;28;20243;-81
2021/04/15 01:39:18;;;;;;;3.95;2.33;;;3.50;1.00;;;;;;5088665;28;20234;-81
2021/04/15 01:41:50;;;;;;;4.10;2.75;;;3.40;1.00;;;;;;5093869;28;21049;-82
2021/04/15 01:44:23;;;;;;;3.63;2.25;;;3.40;1.00;;;;;;5092060;28;20267;-80
2021/04/15 01:46:51;;;;;;;4.35;3.17;;;3.40;1.00;;;;;;5093011;28;20232;-81
2021/04/15 01:49:19;;;;;;;3.88;2.85;;;3.40;1.00;;;;;;5097199;28;20232;-81
2021/04/15 01:51:49;;;;;;;5.25;2.55;;;3.40;1.00;;;;;;5098886;28;20236;-80
2021/04/15 01:54:23;;;;;;;5.07;3.15;;;3.40;1.00;;;;;;5099383;28;20220;-82
2021/04/15 01:56:55;;;;;;;4.38;3.00;;;3.40;1.00;;;;;;5106180;28;20220;-81
2021/04/15 01:59:29;;;;;;;5.45;3.30;;;3.40;1.00;;;;;;5091225;28;20220;-82
2021/04/15 02:02:00;;;;;;;7.35;3.55;;;3.40;1.00;;;;;;5092441;28;21083;-84
2021/04/15 02:04:32;;;;;;;6.75;3.00;;;3.40;1.00;;;;;;5097486;28;20224;-82
2021/04/15 02:07:08;;;;;;;4.18;2.85;;;3.40;1.00;;;;;;5083402;28;20232;-80
2021/04/15 02:09:37;;;;;;;4.15;2.95;;;3.40;1.00;;;;;;5091534;28;20236;-82
2021/04/15 02:12:07;;;;;;;4.30;2.75;;;3.40;1.00;;;;;;5086568;28;20674;-80
2021/04/15 02:14:40;;;;;;;8.23;3.38;;;3.40;1.00;;;;;;5082335;28;20220;-81
2021/04/15 02:17:10;;;;;;;2.92;2.50;;;3.40;1.00;;;;;;5083000;28;20379;-80
2021/04/15 02:19:42;;;;;;;4.97;3.20;;;3.40;1.00;;;;;;5101312;27;20220;-80
2021/04/15 02:22:14;;;;;;;4.57;3.15;;;3.40;1.00;;;;;;5089336;28;20250;-82
2021/04/15 02:24:48;;;;;;;3.97;2.30;;;3.30;1.00;;;;;;5083335;28;20284;-80
2021/04/15 02:27:20;;;;;;;3.00;2.30;;;3.30;1.00;;;;;;5089687;28;20338;-83
2021/04/15 02:29:55;;;;;;;4.72;3.22;;;3.30;1.00;;;;;;5090385;28;20283;-80
2021/04/15 02:32:27;;;;;;;4.32;2.85;;;3.20;1.00;;;;;;5086391;28;20280;-81
2021/04/15 02:35:02;;;;;;;4.00;2.15;;;3.20;1.00;;;;;;5078302;28;20224;-82
2021/04/15 02:37:36;;;;;;;3.40;2.42;;;3.20;1.00;;;;;;5088356;28;20219;-82
2021/04/15 02:40:10;;;;;;;8.93;2.72;;;3.20;1.00;;;;;;5089019;28;20318;-81
2021/04/15 02:42:39;;;;;;;4.25;2.42;;;3.10;1.00;;;;;;5080818;28;20313;-82
2021/04/15 02:45:26;;;;;;;2.30;2.10;;;3.10;1.00;;;;;;5088309;28;20227;-81
2021/04/15 02:48:00;;;;;;;6.20;3.22;;;3.10;1.00;;;;;;5092466;28;20311;-78
2021/04/15 02:50:31;;;;;;;3.33;2.50;;;3.10;1.00;;;;;;5098174;28;20212;-81
2021/04/15 02:53:03;;;;;;;5.88;3.45;;;3.00;1.00;;;;;;5095515;28;20231;-79
2021/04/15 02:55:34;;;;;;;4.75;3.10;;;3.00;1.00;;;;;;5101512;27;20290;-83
2021/04/15 02:58:08;;;;;;;4.80;3.55;;;3.00;1.00;;;;;;5087708;28;20315;-84
2021/04/15 03:00:38;;;;;;;6.05;3.80;;;2.90;1.00;;;;;;5084622;28;20304;-82
2021/04/15 03:03:08;;;;;;;5.80;3.90;;;2.90;1.00;;;;;;5097485;27;20901;-81
2021/04/15 03:05:40;;;;;;;3.63;3.10;;;2.90;1.00;;;;;;5091963;28;21697;-81
2021/04/15 03:08:10;;;;;;;10.98;4.78;;;2.90;1.00;;;;;;5086190;28;20248;-81
2021/04/15 03:10:41;;;;;;;5.90;3.75;;;2.80;1.00;;;;;;5089669;28;21047;-81
2021/04/15 03:13:11;;;;;;;8.43;4.15;;;2.80;1.00;;;;;;5087749;28;20248;-83
2021/04/15 03:15:44;;;;;;;6.53;3.42;;;2.80;1.00;;;;;;5088349;28;20235;-84
2021/04/15 03:18:17;;;;;;;5.28;4.05;;;2.80;1.00;;;;;;5075634;28;20325;-82
2021/04/15 03:20:49;;;;;;;5.20;4.30;;;2.80;1.00;;;;;;5092040;28;20212;-81
2021/04/15 03:23:26;;;;;;;7.18;4.00;;;2.80;1.00;;;;;;5087825;28;20226;-83
2021/04/15 03:25:55;;;;;;;8.32;6.50;;;2.80;1.00;;;;;;5088725;28;20698;-79
2021/04/15 03:28:31;;;;;;;7.97;3.95;;;2.70;1.00;;;;;;5088117;28;20655;-82
2021/04/15 03:31:02;;;;;;;8.02;5.32;;;2.70;1.00;;;;;;5093953;28;20226;-81
2021/04/15 03:33:37;;;;;;;11.57;6.60;;;2.70;1.00;;;;;;5101720;27;20216;-80
2021/04/15 03:36:12;;;;;;;8.45;5.53;;;2.70;1.00;;;;;;5109080;28;21025;-83
2021/04/15 03:38:44;;;;;;;5.65;4.38;;;2.70;1.00;;;;;;5101010;28;20231;-79
2021/04/15 03:41:13;;;;;;;11.07;4.80;;;2.70;1.00;;;;;;5098174;28;20224;-80
2021/04/15 03:43:46;;;;;;;19.55;11.73;;;2.70;1.00;;;;;;5118774;28;20231;-83
2021/04/15 03:46:23;;;;;;;26.98;24.20;;;2.70;1.00;;;;;;5101861;28;20438;-83
2021/04/15 03:48:55;;;;;;;13.95;7.15;;;2.70;1.00;;;;;;5106473;28;20224;-82
2021/04/15 03:51:24;;;;;;;10.90;5.68;;;2.70;1.00;;;;;;5102357;28;20228;-82
2021/04/15 03:53:56;;;;;;;9.48;6.97;;;2.80;1.00;;;;;;5097970;28;20228;-82
2021/04/15 03:56:28;;;;;;;6.53;5.72;;;2.80;1.00;;;;;;5093138;27;20232;-84
2021/04/15 03:58:58;;;;;;;12.77;5.10;;;2.80;1.00;;;;;;5091154;28;20315;-82
2021/04/15 04:01:30;;;;;;;7.43;5.85;;;2.70;1.00;;;;;;5090558;28;20213;-82
2021/04/15 04:04:03;;;;;;;13.52;6.55;;;2.70;1.00;;;;;;5098801;28;20247;-85
2021/04/15 04:06:39;;;;;;;6.68;5.30;;;2.70;1.00;;;;;;5093775;28;20239;-79
2021/04/15 04:09:15;;;;;;;13.18;7.07;;;2.70;1.00;;;;;;5102551;28;20208;-80
2021/04/15 04:11:44;;;;;;;10.05;5.88;;;2.80;1.00;;;;;;5092905;28;20224;-80
2021/04/15 04:14:17;;;;;;;6.72;5.28;;;2.80;1.00;;;;;;5103004;28;20222;-80
2021/04/15 04:16:54;;;;;;;7.63;4.93;;;2.80;1.00;;;;;;5111637;28;20232;-85
2021/04/15 04:19:27;;;;;;;7.25;5.13;;;2.80;1.00;;;;;;5119181;28;20235;-80
2021/04/15 04:22:02;;;;;;;7.60;5.38;;;2.80;1.00;;;;;;5094527;28;20201;-83
2021/04/15 04:24:37;;;;;;;10.40;5.63;;;2.70;1.00;;;;;;5092351;28;20675;-82
2021/04/15 04:27:10;;;;;;;10.05;6.72;;;2.80;1.00;;;;;;5115212;28;20432;-87
2021/04/15 04:29:42;;;;;;;12.85;5.40;;;2.80;1.00;;;;;;5090856;28;20281;-80
2021/04/15 04:32:14;;;;;;;9.88;6.03;;;2.90;1.00;;;;;;5099115;28;20378;-82
2021/04/15 04:34:43;;;;;;;9.32;6.15;;;2.90;1.00;;;;;;5091922;28;20788;-84
2021/04/15 04:37:13;;;;;;;11.88;6.22;;;3.00;1.00;;;;;;5110712;27;20232;-82
2021/04/15 04:39:40;;;;;;;9.55;5.70;;;3.00;1.00;;;;;;5104317;27;20294;-82
2021/04/15 04:42:15;;;;;;;10.48;6.80;;;3.10;1.00;;;;;;5089033;28;20276;-82
2021/04/15 04:44:47;;;;;;;9.15;6.28;;;3.20;1.00;;;;;;5097133;28;20820;-83
2021/04/15 04:47:22;;;;;;;12.75;5.35;;;3.20;1.00;;;;;;5095345;28;20239;-84
2021/04/15 04:49:55;;;;;;;10.48;6.03;;;3.20;1.00;;;;;;5114306;28;20204;-84
2021/04/15 04:52:26;;;;;;;14.85;5.30;;;3.20;1.00;;;;;;5102460;27;20232;-80
2021/04/15 04:54:54;;;;;;;11.85;6.30;;;3.30;1.00;;;;;;5097775;28;20729;-81
2021/04/15 04:57:32;;;;;;;15.77;7.38;;;3.30;1.00;;;;;;5101059;28;20220;-83
2021/04/15 05:00:03;;;;;;;12.00;5.70;;;3.50;1.00;;;;;;5098136;28;20216;-81
2021/04/15 05:02:31;;;;;;;11.98;5.45;;;3.50;1.00;;;;;;5096034;28;20209;-82
2021/04/15 05:05:03;;;;;;;8.13;6.22;;;3.60;1.00;;;;;;5105346;28;20737;-83
2021/04/15 05:07:36;;;;;;;11.77;6.43;;;3.60;1.00;;;;;;5114389;28;20223;-79
2021/04/15 05:10:06;;;;;;;8.02;5.78;;;3.60;1.00;;;;;;5111142;28;20220;-80
2021/04/15 05:12:35;;;;;;;7.82;5.72;;;3.70;1.00;;;;;;5108313;28;20382;-83
2021/04/15 05:15:03;;;;;;;7.70;5.78;;;3.70;1.00;;;;;;5113362;27;20231;-81
2021/04/15 05:17:33;;;;;;;11.10;5.88;;;3.80;1.00;;;;;;5117225;28;20208;-79
2021/04/15 05:20:01;;;;;;;10.00;5.93;;;3.80;1.00;;;;;;5113434;28;20208;-83
2021/04/15 05:22:37;;;;;;;8.88;6.15;;;3.90;1.00;;;;;;5116279;27;20224;-79
2021/04/15 05:25:11;;;;;;;20.83;13.13;;;4.00;1.00;;;;;;5112614;27;20227;-82
2021/04/15 05:27:39;;;;;;;13.90;7.95;;;4.00;1.00;;;;;;5114547;28;20208;-81
2021/04/15 05:30:32;;;;;;;28.05;12.70;;;4.10;1.00;;;;;;5330058;22;20382;-80
2021/04/15 05:33:02;;;;;;;9.75;6.03;;;4.20;1.00;;;;;;5113765;27;20251;-81
2021/04/15 05:35:34;;;;;;;13.38;7.50;;;4.20;1.00;;;;;;5106830;27;20217;-83
2021/04/15 05:38:00;;;;;;;10.65;8.55;;;4.30;1.00;;;;;;5109259;27;20209;-78
2021/04/15 05:40:27;;;;;;;10.40;7.15;;;4.30;1.00;;;;;;5106492;27;20206;-83
2021/04/15 05:43:05;;;;;;;12.00;7.45;;;4.40;1.00;;;;;;5103676;27;20233;-78
2021/04/15 05:45:32;;;;;;;5.78;4.45;;;4.40;1.00;;;;;;5103061;27;20258;-79
2021/04/15 05:48:02;;;;;;;7.80;4.75;;;4.50;1.00;;;;;;5106979;27;20228;-78
2021/04/15 05:50:32;;;;;;;13.13;5.47;;;4.60;1.00;;;;;;5096891;27;20217;-80
2021/04/15 05:53:02;;;;;;;11.88;5.63;;;4.60;1.00;;;;;;5097425;27;20236;-81
2021/04/15 05:55:38;;;;;;;10.07;5.90;;;4.70;1.00;;;;;;5104568;28;20307;-80
2021/04/15 05:58:10;;;;;;;9.15;5.10;;;4.80;1.00;;;;;;5102737;28;20215;-80
2021/04/15 06:00:43;;;;;;;10.50;5.93;;;4.90;1.00;;;;;;5102980;28;20217;-80
2021/04/15 06:03:20;;;;;;;18.63;7.03;;;5.00;1.00;;;;;;5102453;28;20280;-79
2021/04/15 06:05:57;;;;;;;12.80;5.05;;;5.00;1.00;;;;;;5103857;28;20235;-80
2021/04/15 06:08:26;;;;;;;7.65;4.75;;;5.10;1.00;;;;;;5101330;28;20226;-81
2021/04/15 06:11:05;;;;;;;7.78;4.28;;;5.20;1.00;;;;;;5106081;27;20239;-79
2021/04/15 06:13:40;;;;;;;7.90;5.65;;;5.30;1.00;;;;;;5111178;28;20239;-80
2021/04/15 06:16:11;;;;;;;10.32;4.75;;;5.30;1.00;;;;;;5096703;28;21058;-78
2021/04/15 06:18:43;;;;;;;6.55;4.00;;;5.30;1.00;;;;;;5095208;28;20316;-79
2021/04/15 06:21:15;;;;;;;11.30;4.95;;;5.40;1.00;;;;;;5091844;28;20303;-80
2021/04/15 06:23:46;;;;;;;9.77;5.32;;;5.50;1.00;;;;;;5098734;27;20224;-80
2021/04/15 06:26:24;;;;;;;6.65;4.75;;;5.60;1.00;;;;;;5091291;28;20326;-84
2021/04/15 06:28:52;;;;;;;4.50;3.50;;;5.70;1.00;;;;;;5094347;28;20277;-80
2021/04/15 06:31:24;;;;;;;11.88;5.40;;;5.80;1.00;;;;;;5093707;28;20236;-81
2021/04/15 06:33:54;;;;;;;9.70;4.40;;;5.90;1.00;;;;;;5095358;28;20216;-83
2021/04/15 06:36:29;;;;;;;11.52;4.80;;;6.00;1.00;;;;;;5108448;27;20236;-80
2021/04/15 06:39:03;;;;;;;9.43;6.75;;;6.10;1.00;;;;;;5087933;28;20299;-81
2021/04/15 06:41:56;;;;;;;9.93;4.20;;;6.20;1.00;;;;;;5111194;28;20228;-83
2021/04/15 06:45:11;;;;;;;8.40;4.90;;;6.20;1.00;;;;;;5093832;28;20225;-80
2021/04/15 06:48:18;;;;;;;6.47;3.83;;;6.20;1.00;;;;;;5095420;28;21086;-81
2021/04/15 06:51:10;;;;;;;7.38;3.40;;;6.30;1.00;;;;;;5116274;27;20235;-78
2021/04/15 06:53:49;;;;;;;7.13;4.07;;;6.50;1.00;;;;;;5118375;27;20402;-81
2021/04/15 06:56:23;;;;;;;8.75;4.15;;;6.50;1.00;;;;;;5085724;28;20232;-80
2021/04/15 06:59:00;;;;;;;8.07;3.97;;;6.50;1.00;;;;;;5104620;28;20231;-84
2021/04/15 07:01:47;;;;;;;6.65;3.85;;;6.70;1.00;;;;;;5087442;28;20233;-84
2021/04/15 07:04:17;;;;;;;10.13;4.03;;;6.80;1.00;;;;;;5092518;28;20232;-84
2021/04/15 07:07:04;;;;;;;5.65;3.20;;;6.80;1.00;;;;;;5096303;28;20224;-83
2021/04/15 07:10:06;;;;;;;9.65;4.30;;;7.00;1.00;;;;;;5092399;28;20231;-83
2021/04/15 07:13:01;;;;;;;8.20;4.72;;;7.20;1.00;;;;;;5088051;28;21022;-84
2021/04/15 07:15:55;;;;;;;7.25;4.75;;;7.20;1.00;;;;;;5087019;28;20224;-83
2021/04/15 07:18:46;;;;;;;5.88;3.80;;;7.20;1.00;;;;;;5065756;28;20286;-83
2021/04/15 07:21:30;;;;;;;5.97;3.30;;;7.40;1.00;;;;;;5087331;28;20331;-83
2021/04/15 07:24:29;;;;;;;6.43;4.45;;;7.50;1.00;;;;;;5101457;27;20294;-83
2021/04/15 07:27:28;;;;;;;6.05;2.90;;;7.70;1.00;;;;;;5091075;28;20243;-82
2021/04/15 07:30:23;;;;;;;4.78;3.30;;;7.80;1.00;;;;;;5084455;28;20228;-83
2021/04/15 07:33:20;;;;;;;5.25;2.58;;;8.00;1.00;;;;;;5092857;28;20305;-83
2021/04/15 07:36:07;;;;;;;6.50;3.75;;;8.10;1.00;;;;;;5088565;28;20228;-83
2021/04/15 07:38:56;;;;;;;5.28;2.63;;;8.30;1.00;;;;;;5120415;27;20253;-84
2021/04/15 07:41:49;;;;;;;2.85;2.30;;;8.50;1.00;;;;;;5097534;27;20232;-82
2021/04/15 07:44:35;;;;;;;4.93;2.60;;;8.70;1.00;;;;;;5096853;28;20213;-83
2021/04/15 07:47:26;;;;;;;3.08;2.33;;;9.00;1.00;;;;;;5091443;28;20229;-85
2021/04/15 07:50:58;;;;;;;3.10;2.00;;;9.20;1.00;;;;;;5085113;28;20229;-84
2021/04/15 07:54:01;;;;;;;4.95;2.97;;;9.10;1.00;;;;;;5098918;28;21108;-82
2021/04/15 07:56:54;;;;;;;6.57;2.70;;;9.20;1.00;;;;;;5079657;28;20658;-83
2021/04/15 07:59:37;;;;;;;5.25;2.28;;;9.30;1.00;;;;;;5093927;28;20226;-84
2021/04/15 08:02:36;;;;;;;5.68;2.45;;;9.50;1.00;;;;;;5097788;28;20220;-82
2021/04/15 08:05:24;;;;;;;4.40;2.25;;;9.30;1.00;;;;;;5112460;27;20251;-83
2021/04/15 08:08:50;;;;;;;2.30;1.77;;;9.50;1.00;;;;;;5102355;28;20247;-84
2021/04/15 08:11:55;;;;;;;4.20;2.15;;;9.60;1.00;;;;;;5114610;28;20265;-85
2021/04/15 08:14:50;;;;;;;8.23;2.95;;;9.60;1.00;;;;;;5093174;27;20219;-85
2021/04/15 08:17:41;;;;;;;4.63;2.20;;;9.70;1.00;;;;;;5101238;28;20258;-84
2021/04/15 08:20:50;;;;;;;3.03;2.17;;;9.90;1.00;;;;;;5111906;28;20223;-84
2021/04/15 08:23:48;;;;;;;6.22;2.60;;;10.10;1.00;;;;;;5087193;28;20308;-81
2021/04/15 08:26:32;;;;;;;7.72;1.95;;;10.30;1.00;;;;;;5089885;28;20228;-81
2021/04/15 08:29:17;;;;;;;3.50;2.40;;;10.40;1.00;;;;;;5094732;28;20231;-81
2021/04/15 08:31:58;;;;;;;9.48;5.93;;;10.40;1.00;;;;;;5109713;27;20233;-85
2021/04/15 08:34:32;;;;;;;7.82;3.45;;;10.50;1.00;;;;;;5118148;27;20245;-82
2021/04/15 08:37:21;;;;;;;6.20;2.40;;;10.50;1.00;;;;;;5087328;28;20247;-77
2021/04/15 08:40:02;;;;;;;2.90;1.30;;;10.50;1.00;;;;;;5085473;28;20206;-76
2021/04/15 08:42:43;;;;;;;3.40;2.15;;;10.60;1.00;;;;;;5086135;28;20254;-79
2021/04/15 08:45:22;;;;;;;4.60;1.95;;;10.80;1.00;;;;;;5087445;28;20238;-79
2021/04/15 08:47:56;;;;;;;3.63;2.17;;;10.90;1.00;;;;;;5096416;28;20224;-79
2021/04/15 08:50:34;;;;;;;2.33;1.70;;;11.00;1.00;;;;;;5114994;28;20414;-78
2021/04/15 08:53:14;;;;;;;8.00;2.33;;;11.10;1.00;;;;;;5093326;28;20242;-77
2021/04/15 08:55:45;;;;;;;2.67;1.80;;;11.30;1.00;;;;;;5092146;28;20481;-78
2021/04/15 08:58:41;;;;;;;3.07;1.63;;;11.10;1.00;;;;;;5085219;28;20573;-78
2021/04/15 09:01:16;;;;;;;3.25;2.08;;;11.30;1.00;;;;;;5089266;28;20447;-79
2021/04/15 09:03:52;;;;;;;4.50;1.83;;;11.40;1.00;;;;;;5084803;28;20329;-78
2021/04/15 09:06:24;;;;;;;6.97;3.30;;;11.40;1.00;;;;;;5079432;28;20481;-78
2021/04/15 09:09:11;;;;;;;2.77;1.40;;;11.70;1.00;;;;;;5078813;28;20431;-80
2021/04/15 09:11:44;;;;;;;2.80;1.40;;;12.10;1.00;;;;;;5085162;28;20466;-80
2021/04/15 09:14:25;;;;;;;1.87;1.50;;;12.30;1.00;;;;;;5085633;28;21419;-81
2021/04/15 09:16:59;;;;;;;4.20;1.90;;;12.20;1.00;;;;;;5087419;28;20418;-85
2021/04/15 09:19:44;;;;;;;2.73;1.40;;;12.10;1.00;;;;;;5103429;28;20406;-82
2021/04/15 09:22:28;;;;;;;2.90;1.30;;;12.20;1.00;;;;;;5093331;28;20404;-78
2021/04/15 09:25:00;;;;;;;4.80;1.53;;;12.70;1.00;;;;;;5087324;28;20855;-77
2021/04/15 09:27:40;;;;;;;1.50;1.07;;;13.20;1.00;;;;;;5089161;28;20442;-77
2021/04/15 09:30:21;;;;;;;2.27;1.80;;;13.60;1.00;;;;;;5095958;28;20410;-76
2021/04/15 09:33:03;;;;;;;4.10;1.30;;;14.00;1.00;;;;;;5089740;28;21567;-75
2021/04/15 09:35:42;;;;;;;3.77;1.53;;;14.20;1.00;;;;;;5083411;28;20426;-76
2021/04/15 09:38:45;;;;;;;2.10;1.03;;;14.50;1.00;;;;;;5088968;28;20485;-76
2021/04/15 09:41:49;;;;;;;3.90;1.57;;;14.80;1.00;;;;;;5090486;28;20540;-75
2021/04/15 09:44:36;;;;;;;1.17;0.77;;;15.00;1.00;;;;;;5091000;28;20460;-75
2021/04/15 09:47:12;;;;;;;2.40;1.17;;;15.10;1.00;;;;;;5080467;28;20466;-77
2021/04/15 09:49:49;;;;;;;2.70;1.40;;;14.40;1.00;;;;;;5084548;28;20475;-76
2021/04/15 09:52:40;;;;;;;3.57;1.20;;;13.70;1.00;;;;;;5079306;28;20470;-80
2021/04/15 09:55:24;;;;;;;3.77;1.27;;;13.20;1.00;;;;;;5079243;28;20526;-76
2021/04/15 09:57:57;;;;;;;2.40;1.67;;;12.90;1.00;;;;;;5088560;28;20501;-76
2021/04/15 10:00:35;;;;;;;2.30;1.10;;;12.60;1.00;;;;;;5083850;28;20459;-79
2021/04/15 10:03:09;;;;;;;2.07;1.20;;;12.70;1.00;;;;;;5075962;28;20420;-78
2021/04/15 10:06:05;;;;;;;6.03;1.50;;;12.80;1.00;;;;;;5077764;28;20461;-80
2021/04/15 10:08:40;;;;;;;1.93;1.33;;;12.80;1.00;;;;;;5074937;28;20978;-76
2021/04/15 10:11:23;;;;;;;12.03;1.10;;;12.90;1.00;;;;;;5093489;28;20595;-75
2021/04/15 10:14:12;;;;;;;4.03;1.33;;;12.70;1.00;;;;;;5096453;27;20470;-77
2021/04/15 10:16:45;;;;;;;1.87;0.70;;;12.70;1.00;;;;;;5083263;28;20451;-77
2021/04/15 10:19:50;;;;;;;1.70;1.00;;;13.00;1.00;;;;;;5101216;27;20473;-76
2021/04/15 10:22:29;;;;;;;2.50;1.10;;;12.90;1.00;;;;;;5081788;28;20435;-79
2021/04/15 10:25:05;;;;;;;1.03;0.80;;;12.80;1.00;;;;;;5086534;28;20458;-76
2021/04/15 10:27:51;;;;;;;1.97;0.93;;;12.70;1.00;;;;;;5102061;27;20459;-77
2021/04/15 10:30:46;;;;;;;3.23;1.10;;;12.80;1.00;;;;;;5096491;27;20431;-77
2021/04/15 10:33:47;;;;;;;6.43;1.77;;;12.80;1.00;;;;;;5055186;28;20467;-79
2021/04/15 10:36:45;;;;;;;3.13;0.90;;;12.50;1.00;;;;;;5087844;28;20467;-80
2021/04/15 10:39:36;;;;;;;2.37;1.27;;;12.40;1.00;;;;;;5087892;28;20487;-77
2021/04/15 10:42:53;;;;;;;4.70;1.60;;;12.20;1.00;;;;;;5089481;28;20411;-77
2021/04/15 10:46:04;;;;;;;4.33;1.13;;;12.30;1.00;;;;;;5007273;28;21426;-77
2021/04/15 10:48:42;;;;;;;8.77;1.73;;;12.40;1.00;;;;;;4998604;28;20489;-77
2021/04/15 10:51:22;;;;;;;4.23;1.50;;;12.20;1.00;;;;;;5073625;28;20561;-76
2021/04/15 10:53:52;;;;;;;4.13;2.10;;;12.30;1.00;;;;;;5081719;28;20776;-80
2021/04/15 10:56:49;;;;;;;4.07;1.17;;;12.50;1.00;;;;;;5087615;28;20673;-81
2021/04/15 10:59:26;;;;;;;3.07;1.60;;;12.50;1.00;;;;;;5004784;28;20601;-80
2021/04/15 11:05:37;;;;;;;;;;;;;;;;;;;;;
2021/04/15 11:12:22;;;;;;;2.67;1.47;;;12.90;1.00;;;;;;3402224;25;20419;-83
2021/04/15 11:15:07;;;;;;;1.63;1.40;;;13.40;1.00;;;;;;5108575;28;20431;-83
2021/04/15 11:18:37;;;;;;;;;;;;;;;;;;;;;
2021/04/15 11:22:01;;;;;;;;;;;;;;;;;;;;;
2021/04/15 11:25:18;;;;;;;;;;;;;;;;;;;;;
2021/04/15 11:27:51;;;;;;;3.47;1.40;;;13.40;1.00;;;;;;5090705;28;20446;-82
2021/04/15 11:30:35;;;;;;;2.20;1.00;;;13.10;1.00;;;;;;5079963;28;20456;-83
2021/04/15 11:33:06;;;;;;;3.87;1.20;;;13.00;1.00;;;;;;5069357;28;20451;-82
2021/04/15 11:35:36;;;;;;;2.40;1.03;;;12.80;1.00;;;;;;5088877;28;20535;-82
2021/04/15 11:38:21;;;;;;;2.50;1.20;;;12.60;1.00;;;;;;5075684;28;20404;-84
2021/04/15 11:40:49;;;;;;;4.20;1.20;;;12.50;1.00;;;;;;5067004;28;20440;-83
2021/04/15 11:43:49;;;;;;;4.50;1.67;;;12.50;1.00;;;;;;5075029;28;20440;-83
2021/04/15 11:46:33;;;;;;;1.73;1.57;;;12.70;1.00;;;;;;5074964;28;20427;-82
2021/04/15 11:49:06;;;;;;;3.23;1.10;;;12.90;1.00;;;;;;5078328;28;20520;-79
2021/04/15 11:51:40;;;;;;;3.73;1.20;;;12.90;1.00;;;;;;5083873;28;20502;-83
2021/04/15 11:54:29;;;;;;;2.63;1.50;;;12.70;1.00;;;;;;5066607;28;20450;-84
2021/04/15 11:56:58;;;;;;;1.90;1.10;;;12.80;1.00;;;;;;5073424;28;20424;-84
2021/04/15 11:59:38;;;;;;;2.80;1.13;;;12.80;1.00;;;;;;5079776;28;20404;-83
2021/04/15 12:02:17;;;;;;;4.60;2.13;;;12.70;1.00;;;;;;5072842;28;20404;-84
2021/04/15 12:04:45;;;;;;;1.70;0.97;;;12.70;1.00;;;;;;5071786;28;20438;-83
2021/04/15 12:07:21;;;;;;;11.13;3.30;;;12.70;1.00;;;;;;5074198;28;20456;-83
2021/04/15 12:09:51;;;;;;;3.80;2.43;;;12.60;1.00;;;;;;5082832;28;20467;-82
2021/04/15 12:12:39;;;;;;;7.33;1.70;;;12.40;1.00;;;;;;5084415;28;20466;-84
2021/04/15 12:15:27;;;;;;;6.10;2.03;;;12.40;1.00;;;;;;5073572;28;20415;-84
2021/04/15 12:18:00;;;;;;;2.87;1.30;;;12.60;1.00;;;;;;5074636;28;20451;-84
2021/04/15 12:20:36;;;;;;;1.97;0.90;;;12.60;1.00;;;;;;5093559;28;20439;-84
2021/04/15 12:23:15;;;;;;;2.00;1.40;;;12.60;1.00;;;;;;5080680;28;20456;-85
2021/04/15 12:25:57;;;;;;;3.53;1.30;;;12.30;1.00;;;;;;5091926;28;20427;-83
2021/04/15 12:28:36;;;;;;;4.33;1.70;;;12.10;1.00;;;;;;5071068;28;20449;-84
2021/04/15 12:31:22;;;;;;;4.17;1.10;;;11.80;1.00;;;;;;5078608;28;20407;-82
2021/04/15 12:34:09;;;;;;;1.40;1.10;;;11.50;1.00;;;;;;5079100;28;20459;-84
2021/04/15 12:36:44;;;;;;;1.33;1.20;;;11.50;1.00;;;;;;5108649;28;20411;-84
2021/04/15 12:39:20;;;;;;;2.90;2.03;;;11.40;1.00;;;;;;5092376;28;20446;-82
2021/04/15 12:41:55;;;;;;;2.33;1.13;;;11.50;1.00;;;;;;5087100;28;20524;-84
2021/04/15 12:47:28;;;;;;;3.80;1.57;;;12.10;1.00;;;;;;5096418;28;20423;-83
2021/04/15 12:50:01;;;;;;;3.47;2.17;;;12.20;1.00;;;;;;5079745;28;20424;-83
2021/04/15 12:52:33;;;;;;;2.70;1.50;;;12.40;1.00;;;;;;5098227;28;21371;-82
2021/04/15 12:55:07;;;;;;;3.83;2.07;;;12.60;1.00;;;;;;5091441;28;20448;-83
2021/04/15 12:57:59;;;;;;;2.67;1.23;;;12.70;1.00;;;;;;5088490;28;20470;-84
2021/04/15 13:00:42;;;;;;;3.20;1.70;;;12.70;1.00;;;;;;5066962;28;20424;-83
2021/04/15 13:03:20;;;;;;;3.00;1.13;;;12.90;1.00;;;;;;5096756;28;20400;-83
2021/04/15 13:06:10;;;;;;;4.13;1.63;;;12.90;1.00;;;;;;5087532;28;20492;-83
2021/04/15 13:08:47;;;;;;;3.70;1.43;;;13.00;1.00;;;;;;5089530;28;21655;-84
2021/04/15 13:11:37;;;;;;;6.33;3.53;;;12.90;1.00;;;;;;5091556;28;20431;-83
2021/04/15 13:14:13;;;;;;;1.83;1.20;;;12.80;1.00;;;;;;5086772;28;20411;-83
2021/04/15 13:16:51;;;;;;;3.13;1.40;;;12.70;1.00;;;;;;5094124;28;20411;-85
2021/04/15 13:19:36;;;;;;;4.20;1.20;;;12.50;1.00;;;;;;5094201;28;20436;-84
2021/04/15 13:22:24;;;;;;;2.23;2.00;;;12.20;1.00;;;;;;5092651;28;20447;-85
2021/04/15 13:25:20;;;;;;;2.03;1.37;;;12.00;1.00;;;;;;5110633;27;20465;-82
2021/04/15 13:28:11;;;;;;;2.27;1.70;;;11.80;1.00;;;;;;5107497;28;20438;-84
2021/04/15 13:31:06;;;;;;;3.30;2.00;;;11.50;1.00;;;;;;5094296;28;20418;-83
2021/04/15 13:34:05;;;;;;;4.93;1.73;;;11.30;1.00;;;;;;5107156;28;20229;-84
2021/04/15 13:36:45;;;;;;;4.53;1.63;;;11.10;1.00;;;;;;5092634;28;20463;-85
2021/04/15 13:39:46;;;;;;;1.47;1.13;;;11.00;1.00;;;;;;5094252;28;20595;-84
2021/04/15 13:45:21;;;;;;;;;;;;;;;;;;;;;
2021/04/15 13:48:50;;;;;;;4.80;2.33;;;10.90;1.00;;;;;;5061768;28;20502;-82
2021/04/15 13:51:36;;;;;;;3.60;1.07;;;10.90;1.00;;;;;;5092014;28;20459;-85
2021/04/15 13:54:33;;;;;;;3.35;1.45;;;10.90;1.00;;;;;;5104814;28;20418;-84
2021/04/15 13:57:10;;;;;;;1.60;1.07;;;10.90;1.00;;;;;;5083146;28;20241;-83
2021/04/15 14:00:11;;;;;;;2.30;1.40;;;10.80;1.00;;;;;;5097674;28;20410;-83
2021/04/15 14:02:49;;;;;;;2.83;2.25;;;10.70;1.00;;;;;;5103715;28;20210;-83
2021/04/15 14:05:50;;;;;;;4.20;2.28;;;10.60;1.00;;;;;;5092197;28;20226;-84
2021/04/15 14:08:42;;;;;;;3.88;1.70;;;10.60;1.00;;;;;;5093067;28;20244;-83
2021/04/15 14:11:50;;;;;;;2.17;1.23;;;10.50;1.00;;;;;;5092523;28;20221;-78
2021/04/15 14:14:48;;;;;;;1.80;1.13;;;10.40;1.00;;;;;;5086378;28;20447;-80
2021/04/15 14:17:27;;;;;;;4.70;1.17;;;10.40;1.00;;;;;;5093262;28;20799;-78
2021/04/15 14:20:17;;;;;;;3.10;1.55;;;10.50;1.00;;;;;;5093123;28;20221;-79
2021/04/15 14:22:43;;;;;;;2.72;1.70;;;10.50;1.00;;;;;;5094182;28;20216;-78
2021/04/15 14:25:22;;;;;;;2.17;1.10;;;10.40;1.00;;;;;;5091922;28;20218;-78